createdAt,value
2022-12-20T00:01:11.433Z,6.95
2022-12-20T00:03:39.789Z,9.93
2022-12-20T00:06:07.931Z,6.10
2022-12-20T00:08:36.554Z,7.22
2022-12-20T00:11:06.206Z,7.57
2022-12-20T00:13:35.771Z,6.32
2022-12-20T00:16:09.143Z,7.80
2022-12-20T00:18:38.244Z,7.03
2022-12-20T00:21:07.725Z,6.65
2022-12-20T00:23:36.181Z,7.90
2022-12-20T00:26:05.710Z,6.53
2022-12-20T00:28:36.029Z,7.60
2022-12-20T00:31:05.472Z,7.05
2022-12-20T00:33:35.246Z,7.50
2022-12-20T00:36:03.177Z,6.65
2022-12-20T00:38:30.990Z,7.72
2022-12-20T00:41:02.918Z,6.65
2022-12-20T00:43:31.218Z,6.75
2022-12-20T00:46:01.167Z,7.68
2022-12-20T00:48:31.310Z,6.35
2022-12-20T00:50:59.788Z,7.72
2022-12-20T00:53:28.043Z,6.40
2022-12-20T00:55:56.077Z,7.70
2022-12-20T00:58:24.072Z,5.65
2022-12-20T01:00:56.208Z,7.22
2022-12-20T01:03:26.616Z,6.25
2022-12-20T01:05:57.856Z,6.88
2022-12-20T01:08:27.322Z,5.93
2022-12-20T01:11:03.393Z,5.93
2022-12-20T01:13:31.863Z,6.47
2022-12-20T01:16:05.751Z,8.07
2022-12-20T01:18:35.152Z,6.22
2022-12-20T01:21:04.130Z,7.30
2022-12-20T01:23:32.566Z,7.13
2022-12-20T01:26:00.867Z,6.20
2022-12-20T01:28:29.399Z,6.75
2022-12-20T01:30:57.272Z,7.93
2022-12-20T01:33:25.282Z,6.38
2022-12-20T01:35:59.576Z,6.95
2022-12-20T01:38:27.989Z,6.97
2022-12-20T01:40:57.362Z,7.85
2022-12-20T01:43:26.259Z,7.88
2022-12-20T01:45:54.149Z,6.80
2022-12-20T01:48:26.537Z,7.85
2022-12-20T01:50:54.953Z,7.97
2022-12-20T01:53:25.430Z,7.40
2022-12-20T01:55:54.808Z,7.30
2022-12-20T01:58:23.809Z,6.65
2022-12-20T02:00:51.777Z,9.40
2022-12-20T02:03:19.616Z,8.82
2022-12-20T02:05:47.810Z,7.85
2022-12-20T02:08:19.825Z,6.88
2022-12-20T02:11:03.886Z,7.55
2022-12-20T02:13:43.144Z,8.43
2022-12-20T02:16:15.958Z,7.88
2022-12-20T02:18:53.827Z,8.80
2022-12-20T02:21:32.360Z,8.35
2022-12-20T02:24:41.549Z,8.20
2022-12-20T02:27:30.723Z,7.90
2022-12-20T02:30:14.347Z,7.45
2022-12-20T02:32:50.083Z,7.63
2022-12-20T02:35:22.925Z,8.40
2022-12-20T02:37:52.493Z,9.32
2022-12-20T02:40:25.617Z,8.57
2022-12-20T02:42:57.580Z,9.85
2022-12-20T02:45:33.875Z,8.70
2022-12-20T02:48:06.028Z,8.27
2022-12-20T02:50:39.152Z,8.40
2022-12-20T02:53:08.518Z,8.27
2022-12-20T02:55:43.801Z,7.72
2022-12-20T02:58:19.041Z,6.93
2022-12-20T03:00:51.646Z,8.70
2022-12-20T03:03:25.308Z,8.50
2022-12-20T03:05:56.209Z,9.10
2022-12-20T03:08:25.193Z,11.05
2022-12-20T03:10:54.391Z,8.98
2022-12-20T03:13:23.224Z,10.07
2022-12-20T03:16:05.703Z,9.52
2022-12-20T03:18:33.649Z,9.40
2022-12-20T03:21:01.576Z,8.23
2022-12-20T03:23:29.346Z,7.38
2022-12-20T03:25:57.317Z,8.68
2022-12-20T03:28:32.449Z,7.75
2022-12-20T03:31:00.687Z,7.63
2022-12-20T03:33:29.914Z,8.98
2022-12-20T03:36:00.936Z,8.20
2022-12-20T03:38:28.775Z,7.82
2022-12-20T03:40:56.662Z,7.95
2022-12-20T03:43:24.463Z,7.10
2022-12-20T03:45:52.525Z,9.82
2022-12-20T03:48:20.841Z,9.10
2022-12-20T03:50:50.467Z,7.85
2022-12-20T03:53:18.262Z,7.82
2022-12-20T03:55:46.154Z,7.03
2022-12-20T03:58:14.894Z,8.13
2022-12-20T04:00:42.769Z,8.77
2022-12-20T04:03:33.367Z,7.20
2022-12-20T04:06:02.607Z,8.77
2022-12-20T04:08:30.376Z,7.45
2022-12-20T04:11:15.717Z,9.30
2022-12-20T04:13:50.763Z,7.78
2022-12-20T04:16:21.599Z,8.73
2022-12-20T04:18:49.623Z,8.50
2022-12-20T04:21:22.984Z,10.18
2022-12-20T04:23:52.870Z,10.13
2022-12-20T04:26:21.766Z,6.90
2022-12-20T04:28:50.327Z,9.88
2022-12-20T04:31:23.551Z,6.28
2022-12-20T04:33:53.362Z,7.95
2022-12-20T04:36:23.316Z,7.85
2022-12-20T04:38:53.980Z,6.55
2022-12-20T04:41:24.846Z,9.15
2022-12-20T04:43:59.553Z,9.02
2022-12-20T04:46:35.499Z,9.10
2022-12-20T04:49:04.333Z,8.68
2022-12-20T04:51:36.412Z,7.85
2022-12-20T04:54:04.902Z,9.88
2022-12-20T04:56:40.704Z,7.53
2022-12-20T04:59:15.186Z,7.03
2022-12-20T05:01:45.750Z,9.35
2022-12-20T05:04:18.327Z,7.57
2022-12-20T05:06:47.455Z,7.80
2022-12-20T05:09:15.594Z,8.50
2022-12-20T05:11:43.393Z,8.05
2022-12-20T05:14:11.309Z,9.20
2022-12-20T05:16:39.212Z,8.32
2022-12-20T05:19:07.822Z,7.32
2022-12-20T05:21:57.398Z,7.70
2022-12-20T05:24:43.970Z,7.65
2022-12-20T05:27:23.660Z,7.80
2022-12-20T05:29:51.475Z,8.52
2022-12-20T05:32:19.193Z,7.97
2022-12-20T05:34:46.985Z,7.45
2022-12-20T05:37:16.744Z,7.10
2022-12-20T05:39:46.447Z,10.93
2022-12-20T05:42:19.772Z,8.88
2022-12-20T05:44:50.378Z,8.82
2022-12-20T05:47:18.391Z,8.23
2022-12-20T05:49:46.454Z,9.02
2022-12-20T05:52:14.475Z,9.93
2022-12-20T05:54:43.079Z,8.30
2022-12-20T05:57:16.073Z,11.57
2022-12-20T05:59:43.959Z,8.18
2022-12-20T06:02:17.903Z,8.23
2022-12-20T06:04:48.477Z,8.48
2022-12-20T06:07:22.927Z,8.95
2022-12-20T06:09:55.104Z,8.48
2022-12-20T06:12:28.889Z,7.85
2022-12-20T06:14:57.279Z,7.05
2022-12-20T06:17:25.213Z,9.05
2022-12-20T06:19:54.019Z,7.53
2022-12-20T06:22:21.782Z,9.13
2022-12-20T06:24:53.627Z,7.82
2022-12-20T06:27:27.823Z,7.13
2022-12-20T06:30:21.806Z,8.05
2022-12-20T06:33:09.786Z,6.97
2022-12-20T06:35:37.545Z,7.85
2022-12-20T06:38:06.515Z,10.18
2022-12-20T06:40:36.217Z,8.95
2022-12-20T06:43:05.911Z,5.95
2022-12-20T06:45:41.051Z,7.82
2022-12-20T06:48:10.255Z,6.38
2022-12-20T06:50:39.103Z,7.30
2022-12-20T06:53:07.532Z,10.95
2022-12-20T06:55:35.959Z,8.10
2022-12-20T06:58:05.983Z,8.02
2022-12-20T07:00:34.620Z,7.13
2022-12-20T07:03:02.692Z,7.05
2022-12-20T07:05:30.499Z,5.85
2022-12-20T07:07:58.295Z,6.10
2022-12-20T07:10:26.175Z,8.70
2022-12-20T07:12:54.149Z,6.68
2022-12-20T07:15:23.314Z,7.38
2022-12-20T07:17:51.510Z,6.53
2022-12-20T07:20:19.732Z,7.60
2022-12-20T07:22:49.560Z,6.38
2022-12-20T07:25:17.335Z,7.32
2022-12-20T07:27:47.956Z,6.72
2022-12-20T07:30:16.182Z,6.07
2022-12-20T07:32:45.265Z,6.25
2022-12-20T07:35:13.801Z,8.60
2022-12-20T07:37:41.935Z,6.78
2022-12-20T07:40:12.105Z,5.38
2022-12-20T07:42:46.180Z,6.03
2022-12-20T07:45:16.302Z,6.35
2022-12-20T07:47:47.545Z,7.53
2022-12-20T07:50:15.433Z,7.05
2022-12-20T07:52:46.547Z,5.20
2022-12-20T07:57:45.727Z,7.93
2022-12-20T08:05:15.742Z,6.78
2022-12-20T08:07:46.660Z,7.15
2022-12-20T08:10:17.424Z,6.93
2022-12-20T08:12:46.190Z,6.35
2022-12-20T08:15:14.343Z,5.97
2022-12-20T08:17:42.102Z,6.32
2022-12-20T08:20:10.372Z,7.10
2022-12-20T08:22:39.489Z,5.38
2022-12-20T08:25:08.467Z,7.05
2022-12-20T08:27:36.503Z,5.70
2022-12-20T08:30:04.837Z,6.28
2022-12-20T08:32:32.637Z,7.63
2022-12-20T08:35:00.546Z,5.93
2022-12-20T08:37:28.353Z,9.73
2022-12-20T08:39:57.418Z,6.22
2022-12-20T08:42:25.188Z,5.05
2022-12-20T08:44:52.981Z,9.63
2022-12-20T08:47:20.877Z,5.07
2022-12-20T08:49:48.611Z,6.30
2022-12-20T08:52:16.693Z,5.63
2022-12-20T08:54:44.437Z,6.28
2022-12-20T08:57:13.657Z,5.85
2022-12-20T08:59:41.399Z,8.02
2022-12-20T09:02:09.384Z,5.18
2022-12-20T09:04:37.276Z,5.57
2022-12-20T09:07:05.219Z,8.60
2022-12-20T09:09:33.043Z,7.40
2022-12-20T09:12:00.812Z,8.00
2022-12-20T09:14:29.970Z,7.80
2022-12-20T09:16:57.819Z,7.40
2022-12-20T09:19:25.652Z,7.50
2022-12-20T09:21:55.423Z,7.03
2022-12-20T09:24:23.301Z,9.77
2022-12-20T09:26:52.216Z,6.32
2022-12-20T09:29:27.057Z,7.05
2022-12-20T09:31:57.591Z,6.85
2022-12-20T09:34:25.420Z,6.53
2022-12-20T09:36:53.642Z,8.73
2022-12-20T09:39:22.045Z,7.10
2022-12-20T09:41:50.343Z,8.35
2022-12-20T09:44:21.644Z,9.68
2022-12-20T09:46:56.475Z,10.20
2022-12-20T09:49:30.507Z,8.93
2022-12-20T09:52:19.835Z,9.25
2022-12-20T09:54:57.802Z,8.73
2022-12-20T09:57:33.237Z,6.60
2022-12-20T10:00:01.085Z,7.32
2022-12-20T10:05:26.407Z,7.20
2022-12-20T10:08:03.789Z,9.38
2022-12-20T10:10:52.509Z,8.73
2022-12-20T10:13:29.240Z,9.45
2022-12-20T10:16:02.408Z,8.82
2022-12-20T10:18:47.347Z,9.50
2022-12-20T10:21:22.153Z,7.30
2022-12-20T10:24:01.043Z,7.15
2022-12-20T10:26:29.629Z,9.02
2022-12-20T10:28:57.445Z,9.77
2022-12-20T10:31:25.397Z,9.50
2022-12-20T10:33:53.280Z,7.93
2022-12-20T10:36:26.873Z,11.02
2022-12-20T10:38:56.100Z,7.07
2022-12-20T10:41:26.226Z,8.02
2022-12-20T10:43:58.631Z,8.40
2022-12-20T10:46:38.972Z,7.25
2022-12-20T10:49:28.391Z,10.70
2022-12-20T10:52:00.306Z,11.57
2022-12-20T10:54:31.969Z,10.55
2022-12-20T10:57:02.006Z,11.73
2022-12-20T10:59:35.167Z,11.65
2022-12-20T11:02:23.130Z,8.60
2022-12-20T11:05:00.001Z,10.20
2022-12-20T11:07:31.782Z,10.45
2022-12-20T11:10:01.171Z,8.27
2022-12-20T11:12:29.398Z,10.13
2022-12-20T11:15:10.312Z,10.30
2022-12-20T11:17:41.835Z,9.05
2022-12-20T11:20:30.580Z,9.93
2022-12-20T11:23:12.830Z,10.00
2022-12-20T11:25:54.933Z,10.65
2022-12-20T11:28:40.298Z,8.93
2022-12-20T11:31:16.746Z,9.45
2022-12-20T11:34:03.351Z,10.18
2022-12-20T11:36:47.085Z,9.90
2022-12-20T11:39:27.051Z,9.65
2022-12-20T11:42:04.785Z,8.98
2022-12-20T11:44:58.002Z,11.07
2022-12-20T11:47:46.887Z,13.88
2022-12-20T11:50:34.166Z,12.20
2022-12-20T11:53:08.774Z,12.00
2022-12-20T11:55:42.287Z,11.48
2022-12-20T11:58:19.456Z,10.25
2022-12-20T12:00:54.836Z,11.88
2022-12-20T12:03:31.501Z,9.50
2022-12-20T12:06:04.643Z,16.95
2022-12-20T12:08:41.361Z,11.82
2022-12-20T12:11:55.673Z,11.38
2022-12-20T12:14:06.988Z,10.02
2022-12-20T12:16:38.951Z,14.20
2022-12-20T12:19:10.345Z,13.63
2022-12-20T12:21:43.947Z,10.68
2022-12-20T12:24:21.316Z,9.90
2022-12-20T12:26:50.701Z,9.98
2022-12-20T12:29:20.477Z,12.15
2022-12-20T12:31:54.911Z,10.10
2022-12-20T12:34:37.333Z,10.20
2022-12-20T12:37:23.466Z,11.20
2022-12-20T12:40:13.489Z,10.70
2022-12-20T12:43:05.077Z,10.57
2022-12-20T12:45:38.702Z,11.45
2022-12-20T12:48:14.644Z,13.55
2022-12-20T12:50:46.898Z,13.00
2022-12-20T12:53:17.277Z,13.43
2022-12-20T12:55:47.380Z,12.93
2022-12-20T12:58:46.517Z,10.25
2022-12-20T13:01:48.789Z,12.15
2022-12-20T13:04:27.610Z,10.77
2022-12-20T13:06:59.084Z,11.48
2022-12-20T13:09:43.637Z,14.10
2022-12-20T13:12:51.334Z,11.05
2022-12-20T13:16:07.057Z,10.40
2022-12-20T13:18:34.861Z,12.90
2022-12-20T13:21:39.521Z,10.32
2022-12-20T13:24:50.423Z,10.25
2022-12-20T13:27:33.979Z,10.65
2022-12-20T13:30:31.535Z,11.40
2022-12-20T13:33:20.449Z,11.48
2022-12-20T13:36:00.661Z,13.65
2022-12-20T13:38:56.677Z,12.15
2022-12-20T13:41:35.573Z,10.77
2022-12-20T13:44:32.391Z,12.05
2022-12-20T13:47:07.622Z,12.45
2022-12-20T13:49:39.881Z,11.90
2022-12-20T13:52:24.085Z,12.52
2022-12-20T13:54:56.640Z,11.55
2022-12-20T13:57:30.459Z,11.98
2022-12-20T14:00:06.845Z,10.50
2022-12-20T14:05:14.618Z,12.60
2022-12-20T14:07:43.514Z,11.88
2022-12-20T14:10:21.866Z,14.48
2022-12-20T14:12:53.733Z,12.18
2022-12-20T14:15:27.502Z,10.35
2022-12-20T14:17:55.721Z,13.27
2022-12-20T14:20:31.424Z,10.55
2022-12-20T14:23:06.029Z,12.50
2022-12-20T14:25:43.649Z,14.07
2022-12-20T14:28:26.537Z,12.65
2022-12-20T14:30:55.586Z,11.90
2022-12-20T14:33:33.566Z,12.18
2022-12-20T14:36:11.646Z,11.82
2022-12-20T14:38:41.350Z,13.25
2022-12-20T14:41:35.778Z,11.50
2022-12-20T14:44:14.244Z,11.75
2022-12-20T14:46:49.183Z,10.77
2022-12-20T14:49:22.402Z,13.45
2022-12-20T14:51:52.767Z,10.98
2022-12-20T14:55:05.187Z,11.57
2022-12-20T14:57:21.158Z,11.85
2022-12-20T15:00:00.812Z,11.88
2022-12-20T15:02:37.213Z,11.85
2022-12-20T15:05:10.639Z,12.07
2022-12-20T15:07:42.637Z,13.60
2022-12-20T15:10:10.443Z,13.65
2022-12-20T15:12:42.116Z,12.48
2022-12-20T15:15:28.593Z,13.00
2022-12-20T15:17:57.361Z,12.80
2022-12-20T15:20:25.250Z,11.80
2022-12-20T15:22:54.456Z,17.00
2022-12-20T15:25:22.280Z,14.65
2022-12-20T15:27:50.389Z,14.00
2022-12-20T15:30:19.049Z,13.88
2022-12-20T15:32:55.287Z,15.07
2022-12-20T15:35:24.806Z,13.95
2022-12-20T15:37:54.038Z,14.73
2022-12-20T15:40:21.944Z,14.07
2022-12-20T15:42:49.746Z,13.90
2022-12-20T15:45:17.772Z,14.65
2022-12-20T15:47:45.577Z,15.90
2022-12-20T15:50:13.683Z,12.77
2022-12-20T15:52:41.869Z,14.82
2022-12-20T15:55:12.933Z,12.70
2022-12-20T15:57:40.940Z,16.08
2022-12-20T16:00:10.991Z,13.10
2022-12-20T16:02:41.845Z,14.80
2022-12-20T16:05:13.614Z,14.07
2022-12-20T16:07:41.623Z,15.25
2022-12-20T16:10:15.506Z,14.35
2022-12-20T16:12:43.601Z,13.43
2022-12-20T16:15:21.610Z,15.55
2022-12-20T16:17:49.491Z,15.93
2022-12-20T16:20:17.363Z,14.93
2022-12-20T16:22:45.406Z,15.63
2022-12-20T16:25:25.715Z,14.27
2022-12-20T16:27:53.831Z,13.35
2022-12-20T16:30:22.376Z,15.07
2022-12-20T16:32:50.716Z,15.30
2022-12-20T16:35:27.478Z,15.30
2022-12-20T16:37:57.037Z,14.50
2022-12-20T16:40:29.153Z,16.27
2022-12-20T16:43:04.770Z,16.02
2022-12-20T16:45:34.478Z,13.45
2022-12-20T16:48:02.280Z,16.25
2022-12-20T16:50:30.122Z,14.85
2022-12-20T16:52:57.887Z,15.48
2022-12-20T16:55:30.252Z,14.10
2022-12-20T16:58:00.779Z,13.75
2022-12-20T17:00:28.680Z,14.60
2022-12-20T17:02:57.706Z,14.93
2022-12-20T17:05:28.628Z,15.93
2022-12-20T17:07:57.310Z,15.52
2022-12-20T17:10:28.298Z,13.85
2022-12-20T17:12:56.158Z,16.45
2022-12-20T17:15:26.236Z,15.70
2022-12-20T17:17:54.815Z,15.38
2022-12-20T17:20:24.776Z,15.05
2022-12-20T17:22:54.405Z,15.10
2022-12-20T17:25:25.861Z,13.88
2022-12-20T17:27:55.628Z,15.30
2022-12-20T17:30:24.243Z,15.30
2022-12-20T17:32:53.315Z,14.63
2022-12-20T17:35:24.871Z,16.92
2022-12-20T17:37:55.718Z,15.30
2022-12-20T17:40:25.368Z,17.60
2022-12-20T17:42:53.291Z,15.57
2022-12-20T17:45:26.004Z,19.90
2022-12-20T17:47:54.412Z,17.08
2022-12-20T17:50:24.401Z,17.52
2022-12-20T17:52:53.089Z,17.13
2022-12-20T17:55:23.415Z,15.85
2022-12-20T17:57:51.424Z,15.60
2022-12-20T18:00:24.935Z,16.58
2022-12-20T18:02:53.756Z,16.13
2022-12-20T18:05:22.524Z,16.98
2022-12-20T18:07:52.295Z,17.77
2022-12-20T18:10:20.804Z,17.33
2022-12-20T18:12:48.667Z,17.85
2022-12-20T18:15:19.115Z,18.15
2022-12-20T18:17:48.454Z,18.85
2022-12-20T18:20:17.322Z,19.25
2022-12-20T18:22:45.092Z,19.33
2022-12-20T18:25:13.933Z,17.95
2022-12-20T18:27:43.062Z,20.45
2022-12-20T18:30:13.184Z,20.58
2022-12-20T18:32:41.331Z,19.98
2022-12-20T18:35:11.556Z,22.38
2022-12-20T18:37:39.546Z,24.25
2022-12-20T18:40:09.209Z,24.10
2022-12-20T18:42:37.071Z,24.38
2022-12-20T18:45:05.452Z,22.33
2022-12-20T18:47:33.315Z,24.92
2022-12-20T18:50:01.130Z,23.92
2022-12-20T18:52:30.286Z,21.88
2022-12-20T18:54:58.225Z,22.35
2022-12-20T18:57:26.175Z,25.90
2022-12-20T18:59:54.006Z,26.40
2022-12-20T19:02:22.068Z,25.02
2022-12-20T19:04:50.047Z,25.92
2022-12-20T19:07:17.839Z,26.75
2022-12-20T19:09:46.943Z,28.98
2022-12-20T19:12:14.752Z,28.58
2022-12-20T19:14:42.512Z,27.20
2022-12-20T19:17:10.398Z,31.60
2022-12-20T19:19:38.275Z,28.02
2022-12-20T19:22:06.099Z,28.35
2022-12-20T19:24:33.862Z,26.00
2022-12-20T19:27:04.238Z,25.77
2022-12-20T19:29:32.005Z,29.17
2022-12-20T19:31:59.752Z,28.15
2022-12-20T19:34:27.574Z,29.73
2022-12-20T19:36:55.361Z,29.88
2022-12-20T19:39:23.646Z,29.50
2022-12-20T19:42:22.391Z,29.73
2022-12-20T19:47:09.475Z,30.02
2022-12-20T19:49:37.254Z,30.65
2022-12-20T19:52:06.018Z,34.50
2022-12-20T19:54:33.940Z,31.13
2022-12-20T19:57:01.785Z,32.47
2022-12-20T19:59:30.645Z,32.58
2022-12-20T20:02:00.019Z,36.30
2022-12-20T20:04:28.473Z,33.10
2022-12-20T20:06:57.357Z,37.42
2022-12-20T20:09:25.349Z,34.83
2022-12-20T20:11:53.171Z,45.03
2022-12-20T20:14:21.574Z,42.72
2022-12-20T20:16:49.483Z,42.97
2022-12-20T20:19:18.917Z,39.85
2022-12-20T20:21:48.716Z,37.33
2022-12-20T20:24:16.842Z,36.67
2022-12-20T20:26:44.695Z,39.38
2022-12-20T20:29:12.538Z,38.38
2022-12-20T20:31:40.383Z,41.13
2022-12-20T20:34:09.824Z,43.63
2022-12-20T20:36:39.368Z,41.90
2022-12-20T20:39:07.453Z,43.90
2022-12-20T20:41:35.345Z,48.88
2022-12-20T20:44:03.103Z,50.80
2022-12-20T20:46:31.029Z,50.17
2022-12-20T20:48:59.322Z,53.72
2022-12-20T20:51:27.141Z,48.13
2022-12-20T20:53:56.261Z,50.65
2022-12-20T20:56:24.125Z,48.33
2022-12-20T20:58:53.530Z,45.17
2022-12-20T21:01:23.336Z,47.55
2022-12-20T21:03:51.289Z,56.60
2022-12-20T21:09:08.416Z,51.92
2022-12-20T21:11:36.995Z,54.28
2022-12-20T21:14:05.129Z,55.22
2022-12-20T21:16:33.100Z,49.70
2022-12-20T21:19:00.995Z,50.90
2022-12-20T21:21:28.951Z,57.28
2022-12-20T21:23:56.884Z,50.38
2022-12-20T21:26:26.248Z,56.78
2022-12-20T21:28:57.551Z,49.20
2022-12-20T21:31:25.525Z,50.13
2022-12-20T21:33:53.355Z,49.50
2022-12-20T21:36:21.189Z,53.05
2022-12-20T21:38:50.217Z,48.53
2022-12-20T21:41:19.964Z,50.00
2022-12-20T21:43:49.179Z,48.38
2022-12-20T21:46:17.261Z,46.28
2022-12-20T21:49:02.307Z,55.15
2022-12-20T21:51:31.387Z,50.65
2022-12-20T21:54:01.299Z,50.88
2022-12-20T21:56:32.303Z,50.30
2022-12-20T21:59:02.335Z,47.30
2022-12-20T22:01:31.027Z,54.03
2022-12-20T22:04:01.329Z,48.42
2022-12-20T22:06:29.516Z,46.03
2022-12-20T22:08:58.813Z,43.58
2022-12-20T22:11:27.110Z,49.92
2022-12-20T22:13:56.556Z,42.38
2022-12-20T22:16:29.096Z,49.33
2022-12-20T22:18:58.214Z,51.92
2022-12-20T22:21:27.573Z,48.58
2022-12-20T22:23:55.743Z,50.13
2022-12-20T22:26:25.897Z,45.50
2022-12-20T22:29:02.505Z,46.78
2022-12-20T22:31:32.061Z,47.50
2022-12-20T22:34:00.832Z,43.08
2022-12-20T22:36:29.189Z,44.80
2022-12-20T22:38:58.152Z,54.25
2022-12-20T22:41:28.652Z,50.65
2022-12-20T22:43:58.425Z,47.58
2022-12-20T22:46:29.072Z,44.38
2022-12-20T22:48:59.013Z,43.08
2022-12-20T22:51:27.933Z,50.95
2022-12-20T22:53:58.130Z,47.15
2022-12-20T22:56:26.023Z,48.53
2022-12-20T22:58:53.834Z,43.60
2022-12-20T23:01:22.786Z,51.17
2022-12-20T23:03:50.719Z,49.63
2022-12-20T23:06:21.660Z,45.22
2022-12-20T23:08:50.116Z,45.65
2022-12-20T23:11:38.121Z,46.28
2022-12-20T23:14:23.912Z,46.25
2022-12-20T23:16:52.145Z,46.92
2022-12-20T23:19:20.002Z,44.45
2022-12-20T23:22:06.445Z,46.38
2022-12-20T23:24:34.206Z,45.15
2022-12-20T23:27:02.101Z,48.35
2022-12-20T23:29:30.803Z,45.97
2022-12-20T23:31:58.690Z,44.58
2022-12-20T23:34:26.616Z,45.13
2022-12-20T23:36:55.732Z,49.90
2022-12-20T23:39:23.538Z,47.83
2022-12-20T23:41:51.725Z,47.55
2022-12-20T23:44:19.478Z,48.13
2022-12-20T23:46:47.244Z,48.47
2022-12-20T23:49:15.024Z,45.08
2022-12-20T23:51:42.810Z,45.83
2022-12-20T23:54:12.277Z,42.88
2022-12-20T23:56:40.074Z,45.20
2022-12-20T23:59:08.227Z,44.58
